Detalii statie AGRALMIXT [00001CED]

Toti senzorii

Date Temperatura solului [C]Precipitatii [mm]Voltaj baterie [mV]Leaf Wetness [Min]HC Air temperature [C]HC Relative humidity [%]Punctul de roua [C]
medieminmaxsumaultimatimpmedieminmaxmediemediemin
2019-08-15 19:00:00 0 6844 17.14 16.94 17.3 76.68 12.8 12.7
2019-08-15 20:00:00 0 6756 16.6 15.86 16.99 79.43 12.8 12.7
2019-08-15 21:00:00 0 6708 14.95 13.99 15.68 87.06 12.6 12.1
2019-08-15 22:00:00 0 6698 13.6 13.03 14.14 95.17 12.7 11.8
2019-08-15 23:00:00 0 6688 13.99 13.72 14.2 96.4 13.2 13
2019-08-16 00:00:00 0 6688 13.96 13.73 14.13 96.48 13.3 13.1
2019-08-16 01:00:00 0 6668 13.43 13.12 13.74 97.34 12.8 12.6
2019-08-16 02:00:00 0 6668 12.25 11.62 13.17 98.29 11.8 11.3
2019-08-16 03:00:00 0 6650 12.9 12.12 13.28 99.26 12.6 12.1
2019-08-16 04:00:00 0.2 6650 12.44 12.07 12.68 99.62 12.2 11.9
2019-08-16 05:00:00 0 6650 12.06 11.63 12.39 100 12 11.6
2019-08-16 06:00:00 0 6756 12.19 11.7 13.33 100 12.1 11.7
2019-08-16 07:00:00 0 7342 14.49 13.36 15.8 98.17 14.1 13.3
2019-08-16 08:00:00 0 7342 16.66 15.99 17.81 88.38 14.5 14.2
2019-08-16 09:00:00 0 7332 19.64 18.08 20.95 69.94 13.7 12.4
2019-08-16 10:00:00 0 7332 22.05 21.12 22.48 52.38 11.6 10.9
2019-08-16 11:00:00 0 7332 23.3 22.13 23.83 46.65 11 10.1
2019-08-16 12:00:00 0 7332 24.39 23.14 25.64 40.52 9.8 8.4
2019-08-16 13:00:00 0 7332 25 24.04 25.62 40.19 10.3 9.4
2019-08-16 14:00:00 0 7324 25.47 24.45 26.42 37.53 9.6 8.8
2019-08-16 15:00:00 0 7186 25.35 24.38 26.24 35.12 8.5 8
2019-08-16 16:00:00 0 7166 25.09 23.4 26.04 35.11 8.3 7.7
2019-08-16 17:00:00 0 7148 23.7 22.68 25.09 37.03 7.9 7.4
2019-08-16 18:00:00 0 7010 22.56 21.96 23.07 39.08 7.7 7.1
2019-08-16 19:00:00 0 6816 20.54 19.17 21.78 45.02 7.9 7.3
2019-08-16 20:00:00 0 6728 19.22 18.44 19.62 47.75 7.6 7.4
2019-08-16 21:00:00 0 6698 14.6 13.04 17.88 67.54 8.3 7.5
2019-08-16 22:00:00 0 6698 12.58 11.81 13.03 80.62 9.2 8.8
2019-08-16 23:00:00 0 6688 11.77 11.42 12.05 87.97 9.7 9.5
2019-08-17 00:00:00 0 6678 11.28 10.83 11.75 91.17 9.7 9.5
2019-08-17 01:00:00 0 6668 10.47 10.23 10.83 95.82 9.7 9.5
2019-08-17 02:00:00 0 6668 9.86 9.23 10.41 98.21 9.4 8.7
2019-08-17 03:00:00 0 6660 9.64 9.36 10.03 99.95 9.5 9.3
2019-08-17 04:00:00 0 6650 9.45 9.07 9.77 100 9.4 9
2019-08-17 05:00:00 0 6650 9.13 8.58 9.29 100 9 8.5
2019-08-17 06:00:00 0 6748 9.44 8.87 10.3 100 9.4 8.8
2019-08-17 07:00:00 0 7332 12.17 10.44 13.97 99.31 11.9 10.4
2019-08-17 08:00:00 0 7342 15.1 14.17 16.5 85.48 12.5 11.9
2019-08-17 09:00:00 0 7332 19.11 16.84 20.79 63.36 11.7 11.4
2019-08-17 10:00:00 0 7332 22.07 20.68 23.43 52.74 11.7 11.2
2019-08-17 11:00:00 0 7332 24.22 23.37 25.06 43.97 11 10.4
2019-08-17 12:00:00 0 7324 23.92 21.96 26.41 41.8 9.8 8.8
2019-08-17 13:00:00 0 7324 24.6 23.12 26.33 38.53 9.3 8.4
2019-08-17 14:00:00 0 7324 24.45 23 27.27 37.81 8.8 7.6
2019-08-17 15:00:00 0 7324 24.9 23.46 26.39 36.98 8.9 8.4
2019-08-17 16:00:00 0 7196 25.62 24.38 27.54 34.98 8.7 7.8
2019-08-17 17:00:00 0 7304 24.11 23.13 25.25 37.02 8.3 7.5
2019-08-17 18:00:00 0 7108 23.6 23.15 23.97 40.08 9 8.7